createdAt,value
2018-03-18T00:00:24.099Z,-2.52
2018-03-18T00:01:24.014Z,-2.47
2018-03-18T00:02:23.921Z,-2.56
2018-03-18T00:03:23.837Z,-2.42
2018-03-18T00:04:23.741Z,-2.45
2018-03-18T00:05:23.654Z,-2.47
2018-03-18T00:06:23.563Z,-2.55
2018-03-18T00:07:23.474Z,-2.52
2018-03-18T00:08:23.383Z,-2.53
2018-03-18T00:09:23.293Z,-2.52
2018-03-18T00:10:23.205Z,-2.56
2018-03-18T00:11:23.124Z,-2.55
2018-03-18T00:12:23.027Z,-2.55
2018-03-18T00:13:22.935Z,-2.60
2018-03-18T00:14:22.847Z,-2.50
2018-03-18T00:15:22.760Z,-2.52
2018-03-18T00:16:22.669Z,-2.59
2018-03-18T00:17:22.580Z,-2.59
2018-03-18T00:18:22.488Z,-2.52
2018-03-18T00:19:22.400Z,-2.55
2018-03-18T00:20:22.310Z,-2.52
2018-03-18T00:21:22.221Z,-2.48
2018-03-18T00:22:22.132Z,-2.53
2018-03-18T00:23:22.042Z,-2.52
2018-03-18T00:24:21.951Z,-2.52
2018-03-18T00:25:21.862Z,-2.50
2018-03-18T00:26:21.771Z,-2.47
2018-03-18T00:27:21.691Z,-2.50
2018-03-18T00:28:21.594Z,-2.63
2018-03-18T00:29:21.503Z,-2.62
2018-03-18T00:30:21.415Z,-2.63
2018-03-18T00:31:21.327Z,-2.63
2018-03-18T00:32:21.296Z,-2.63
2018-03-18T00:33:21.159Z,-2.66
2018-03-18T00:34:21.056Z,-2.63
2018-03-18T00:35:20.967Z,-2.58
2018-03-18T00:36:20.879Z,-2.69
2018-03-18T00:37:20.792Z,-2.65
2018-03-18T00:38:20.699Z,-2.63
2018-03-18T00:39:20.613Z,-2.65
2018-03-18T00:40:20.542Z,-2.63
2018-03-18T00:41:20.429Z,-2.69
2018-03-18T00:42:20.340Z,-2.69
2018-03-18T00:43:20.250Z,-2.69
2018-03-18T00:44:20.160Z,-2.70
2018-03-18T00:45:20.094Z,-2.70
2018-03-18T00:46:19.982Z,-2.65
2018-03-18T00:47:19.893Z,-2.65
2018-03-18T00:48:19.801Z,-2.66
2018-03-18T00:49:19.711Z,-2.71
2018-03-18T00:50:19.627Z,-2.69
2018-03-18T00:51:19.532Z,-2.74
2018-03-18T00:52:19.464Z,-2.76
2018-03-18T00:53:19.368Z,-2.76
2018-03-18T00:54:19.264Z,-2.62
2018-03-18T00:55:19.176Z,-2.74
2018-03-18T00:56:19.095Z,-2.73
2018-03-18T00:57:18.993Z,-2.69
2018-03-18T00:58:18.908Z,-2.69
2018-03-18T00:59:18.821Z,-2.69
2018-03-18T01:00:18.792Z,-2.69
2018-03-18T01:01:18.638Z,-2.62
2018-03-18T01:02:18.547Z,-2.65
2018-03-18T01:03:18.457Z,-2.65
2018-03-18T01:04:18.368Z,-2.65
2018-03-18T01:05:18.280Z,-2.62
2018-03-18T01:06:18.196Z,-2.65
2018-03-18T01:07:18.099Z,-2.66
2018-03-18T01:08:18.012Z,-2.59
2018-03-18T01:09:17.920Z,-2.63
2018-03-18T01:10:17.834Z,-2.70
2018-03-18T01:11:17.743Z,-2.66
2018-03-18T01:12:17.650Z,-2.59
2018-03-18T01:13:17.566Z,-2.58
2018-03-18T01:14:17.471Z,-2.55
2018-03-18T01:15:17.405Z,-2.59
2018-03-18T01:16:17.292Z,-2.70
2018-03-18T01:17:17.203Z,-2.65
2018-03-18T01:18:17.114Z,-2.65
2018-03-18T01:19:17.025Z,-2.70
2018-03-18T01:20:16.936Z,-2.63
2018-03-18T01:21:16.845Z,-2.76
2018-03-18T01:22:16.757Z,-2.71
2018-03-18T01:23:16.677Z,-2.71
2018-03-18T01:24:16.577Z,-2.70
2018-03-18T01:25:16.485Z,-2.66
2018-03-18T01:26:16.410Z,-2.71
2018-03-18T01:27:16.321Z,-2.70
2018-03-18T01:28:16.220Z,-2.70
2018-03-18T01:29:16.128Z,-2.74
2018-03-18T01:30:16.038Z,-2.70
2018-03-18T01:31:15.953Z,-2.78
2018-03-18T01:32:15.859Z,-2.76
2018-03-18T01:33:15.770Z,-2.70
2018-03-18T01:34:15.678Z,-2.73
2018-03-18T01:35:15.591Z,-2.83
2018-03-18T01:36:15.502Z,-2.74
2018-03-18T01:37:15.413Z,-2.73
2018-03-18T01:38:15.321Z,-2.65
2018-03-18T01:39:15.262Z,-2.74
2018-03-18T01:40:15.156Z,-2.81
2018-03-18T01:41:15.052Z,-2.80
2018-03-18T01:42:14.962Z,-2.73
2018-03-18T01:43:14.875Z,-2.60
2018-03-18T01:44:14.783Z,-2.76
2018-03-18T01:45:14.693Z,-2.73
2018-03-18T01:46:14.604Z,-2.73
2018-03-18T01:47:14.517Z,-2.69
2018-03-18T01:48:14.424Z,-2.76
2018-03-18T01:49:14.337Z,-2.70
2018-03-18T01:50:14.247Z,-2.69
2018-03-18T01:51:14.156Z,-2.70
2018-03-18T01:52:14.066Z,-2.74
2018-03-18T01:53:13.975Z,-2.73
2018-03-18T01:54:13.887Z,-2.69
2018-03-18T01:55:13.796Z,-2.71
2018-03-18T01:56:13.709Z,-2.70
2018-03-18T01:57:13.617Z,-2.76
2018-03-18T01:58:13.530Z,-2.66
2018-03-18T01:59:13.440Z,-2.69
2018-03-18T02:00:13.348Z,-2.69
2018-03-18T02:01:13.262Z,-2.65
2018-03-18T02:02:13.174Z,-2.62
2018-03-18T02:03:13.078Z,-2.71
2018-03-18T02:04:12.990Z,-2.73
2018-03-18T02:05:12.901Z,-2.73
2018-03-18T02:06:12.817Z,-2.71
2018-03-18T02:07:12.721Z,-2.76
2018-03-18T02:08:12.630Z,-2.74
2018-03-18T02:09:12.543Z,-2.76
2018-03-18T02:10:12.451Z,-2.69
2018-03-18T02:11:12.364Z,-2.76
2018-03-18T02:12:12.274Z,-2.69
2018-03-18T02:13:12.182Z,-2.71
2018-03-18T02:14:12.096Z,-2.71
2018-03-18T02:15:12.006Z,-2.74
2018-03-18T02:16:11.921Z,-2.74
2018-03-18T02:17:11.832Z,-2.66
2018-03-18T02:18:11.737Z,-2.66
2018-03-18T02:19:11.651Z,-2.66
2018-03-18T02:20:11.558Z,-2.74
2018-03-18T02:21:11.467Z,-2.74
2018-03-18T02:22:11.437Z,-2.70
2018-03-18T02:23:11.288Z,-2.76
2018-03-18T02:24:11.198Z,-2.62
2018-03-18T02:25:11.109Z,-2.70
2018-03-18T02:26:11.021Z,-2.71
2018-03-18T02:27:10.933Z,-2.71
2018-03-18T02:28:10.840Z,-2.70
2018-03-18T02:29:10.751Z,-2.73
2018-03-18T02:30:10.660Z,-2.81
2018-03-18T02:31:10.573Z,-2.80
2018-03-18T02:32:10.481Z,-2.77
2018-03-18T02:33:10.392Z,-2.81
2018-03-18T02:34:10.340Z,-2.78
2018-03-18T02:35:10.214Z,-2.77
2018-03-18T02:36:10.127Z,-2.80
2018-03-18T02:37:10.036Z,-2.74
2018-03-18T02:38:09.944Z,-2.76
2018-03-18T02:39:09.855Z,-2.73
2018-03-18T02:40:09.768Z,-2.83
2018-03-18T02:41:09.676Z,-2.81
2018-03-18T02:42:09.584Z,-2.81
2018-03-18T02:43:09.495Z,-2.81
2018-03-18T02:44:09.406Z,-2.88
2018-03-18T02:45:10.890Z,-2.83
2018-03-18T02:46:09.226Z,-2.83
2018-03-18T02:47:09.137Z,-2.89
2018-03-18T02:48:09.049Z,-2.83
2018-03-18T02:49:08.958Z,-2.80
2018-03-18T02:50:08.866Z,-2.78
2018-03-18T02:51:08.780Z,-2.83
2018-03-18T02:52:08.693Z,-2.77
2018-03-18T02:53:08.606Z,-2.80
2018-03-18T02:54:08.514Z,-2.77
2018-03-18T02:55:08.448Z,-2.80
2018-03-18T02:56:08.341Z,-2.81
2018-03-18T02:57:08.239Z,-2.83
2018-03-18T02:58:08.152Z,-2.81
2018-03-18T02:59:08.062Z,-2.78
2018-03-18T03:00:07.968Z,-2.84
2018-03-18T03:01:07.882Z,-2.83
2018-03-18T03:02:07.800Z,-2.73
2018-03-18T03:03:07.701Z,-2.76
2018-03-18T03:04:07.612Z,-2.78
2018-03-18T03:05:07.521Z,-2.78
2018-03-18T03:06:07.433Z,-2.78
2018-03-18T03:07:07.343Z,-2.88
2018-03-18T03:08:07.250Z,-2.84
2018-03-18T03:09:07.168Z,-2.83
2018-03-18T03:10:07.080Z,-2.77
2018-03-18T03:11:06.983Z,-2.78
2018-03-18T03:12:06.896Z,-2.83
2018-03-18T03:13:06.810Z,-2.83
2018-03-18T03:14:06.712Z,-2.80
2018-03-18T03:15:06.624Z,-2.81
2018-03-18T03:16:06.533Z,-2.80
2018-03-18T03:17:06.449Z,-2.88
2018-03-18T03:18:06.357Z,-2.77
2018-03-18T03:19:06.266Z,-2.78
2018-03-18T03:20:06.174Z,-2.86
2018-03-18T03:21:06.084Z,-2.89
2018-03-18T03:22:05.997Z,-2.88
2018-03-18T03:23:05.904Z,-2.86
2018-03-18T03:24:05.817Z,-2.80
2018-03-18T03:25:05.725Z,-2.81
2018-03-18T03:26:05.635Z,-2.92
2018-03-18T03:27:05.546Z,-2.80
2018-03-18T03:28:05.459Z,-2.92
2018-03-18T03:29:05.367Z,-2.88
2018-03-18T03:30:05.289Z,-2.88
2018-03-18T03:31:05.189Z,-2.89
2018-03-18T03:32:05.109Z,-2.92
2018-03-18T03:33:05.012Z,-2.81
2018-03-18T03:34:04.976Z,-2.89
2018-03-18T03:35:04.832Z,-2.78
2018-03-18T03:36:04.736Z,-2.80
2018-03-18T03:37:04.650Z,-2.89
2018-03-18T03:38:04.558Z,-2.95
2018-03-18T03:39:04.473Z,-2.91
2018-03-18T03:40:04.429Z,-2.88
2018-03-18T03:41:04.289Z,-2.88
2018-03-18T03:42:04.199Z,-2.92
2018-03-18T03:43:04.107Z,-2.78
2018-03-18T03:44:04.030Z,-2.80
2018-03-18T03:45:03.928Z,-2.80
2018-03-18T03:46:03.849Z,-2.88
2018-03-18T03:47:03.749Z,-2.92
2018-03-18T03:48:03.660Z,-2.84
2018-03-18T03:49:03.576Z,-2.94
2018-03-18T03:50:03.481Z,-2.98
2018-03-18T03:51:03.390Z,-2.94
2018-03-18T03:52:03.299Z,-2.92
2018-03-18T03:53:03.208Z,-2.83
2018-03-18T03:54:03.119Z,-2.97
2018-03-18T03:55:03.029Z,-2.98
2018-03-18T03:56:02.940Z,-2.98
2018-03-18T03:57:02.849Z,-2.88
2018-03-18T03:58:02.760Z,-2.89
2018-03-18T03:59:02.672Z,-2.91
2018-03-18T04:00:02.580Z,-2.80
2018-03-18T04:01:02.491Z,-2.83
2018-03-18T04:02:02.404Z,-2.89
2018-03-18T04:03:02.311Z,-2.88
2018-03-18T04:04:02.239Z,-2.88
2018-03-18T04:05:02.131Z,-2.92
2018-03-18T04:06:02.047Z,-2.94
2018-03-18T04:07:01.957Z,-2.94
2018-03-18T04:08:01.862Z,-2.84
2018-03-18T04:09:01.793Z,-2.92
2018-03-18T04:10:01.686Z,-2.95
2018-03-18T04:11:01.592Z,-2.88
2018-03-18T04:12:01.504Z,-2.89
2018-03-18T04:13:01.412Z,-2.88
2018-03-18T04:14:01.323Z,-2.97
2018-03-18T04:15:01.234Z,-2.91
2018-03-18T04:16:01.146Z,-2.92
2018-03-18T04:17:01.055Z,-2.86
2018-03-18T04:18:00.963Z,-2.92
2018-03-18T04:19:00.874Z,-2.95
2018-03-18T04:20:00.783Z,-2.88
2018-03-18T04:21:00.696Z,-3.07
2018-03-18T04:22:00.633Z,-2.97
2018-03-18T04:23:00.542Z,-2.91
2018-03-18T04:24:00.424Z,-2.89
2018-03-18T04:25:00.333Z,-2.92
2018-03-18T04:26:00.247Z,-2.91
2018-03-18T04:27:00.155Z,-2.89
2018-03-18T04:28:00.063Z,-2.92
2018-03-18T04:28:59.985Z,-2.94
2018-03-18T04:29:59.884Z,-3.04
2018-03-18T04:30:59.795Z,-3.06
2018-03-18T04:31:59.707Z,-3.01
2018-03-18T04:32:59.616Z,-3.07
2018-03-18T04:33:59.526Z,-3.06
2018-03-18T04:34:59.437Z,-3.07
2018-03-18T04:35:59.343Z,-3.12
2018-03-18T04:36:59.257Z,-3.10
2018-03-18T04:37:59.165Z,-3.10
2018-03-18T04:38:59.075Z,-3.04
2018-03-18T04:39:58.986Z,-3.07
2018-03-18T04:40:58.897Z,-3.10
2018-03-18T04:41:58.806Z,-3.06
2018-03-18T04:42:58.717Z,-3.09
2018-03-18T04:43:58.626Z,-3.09
2018-03-18T04:44:58.536Z,-3.13
2018-03-18T04:45:58.446Z,-3.12
2018-03-18T04:46:58.356Z,-3.13
2018-03-18T04:47:58.266Z,-3.10
2018-03-18T04:48:58.193Z,-3.06
2018-03-18T04:49:58.088Z,-3.07
2018-03-18T04:50:57.998Z,-3.07
2018-03-18T04:51:57.912Z,-3.15
2018-03-18T04:52:57.816Z,-3.10
2018-03-18T04:53:57.727Z,-3.09
2018-03-18T04:54:57.635Z,-3.12
2018-03-18T04:55:57.550Z,-3.10
2018-03-18T04:56:57.457Z,-3.07
2018-03-18T04:57:57.365Z,-3.13
2018-03-18T04:58:57.278Z,-3.06
2018-03-18T04:59:57.186Z,-3.12
2018-03-18T05:00:57.098Z,-3.16
2018-03-18T05:01:57.007Z,-3.07
2018-03-18T05:02:56.919Z,-3.07
2018-03-18T05:03:56.835Z,-3.07
2018-03-18T05:04:56.738Z,-3.15
2018-03-18T05:05:56.648Z,-3.02
2018-03-18T05:06:56.558Z,-3.07
2018-03-18T05:07:56.479Z,-3.10
2018-03-18T05:08:56.376Z,-3.10
2018-03-18T05:09:56.285Z,-3.09
2018-03-18T05:10:56.197Z,-3.07
2018-03-18T05:11:56.107Z,-3.13
2018-03-18T05:12:56.017Z,-3.10
2018-03-18T05:13:55.928Z,-3.12
2018-03-18T05:14:55.837Z,-3.16
2018-03-18T05:15:55.747Z,-3.02
2018-03-18T05:16:55.662Z,-3.09
2018-03-18T05:17:55.566Z,-3.06
2018-03-18T05:18:55.479Z,-3.07
2018-03-18T05:19:55.390Z,-3.09
2018-03-18T05:20:55.298Z,-3.06
2018-03-18T05:21:55.208Z,-3.20
2018-03-18T05:22:55.119Z,-3.10
2018-03-18T05:23:55.027Z,-3.15
2018-03-18T05:24:54.936Z,-3.13
2018-03-18T05:25:54.847Z,-3.17
2018-03-18T05:26:54.756Z,-3.13
2018-03-18T05:27:54.667Z,-3.07
2018-03-18T05:28:54.577Z,-3.13
2018-03-18T05:29:54.488Z,-3.09
2018-03-18T05:30:54.396Z,-3.12
2018-03-18T05:31:54.313Z,-3.02
2018-03-18T05:32:54.219Z,-3.09
2018-03-18T05:33:54.130Z,-3.12
2018-03-18T05:34:54.038Z,-3.10
2018-03-18T05:35:53.947Z,-3.13
2018-03-18T05:36:53.859Z,-3.09
2018-03-18T05:37:53.770Z,-3.10
2018-03-18T05:38:53.678Z,-3.02
2018-03-18T05:39:53.586Z,-3.13
2018-03-18T05:40:53.500Z,-3.07
2018-03-18T05:41:53.412Z,-3.12
2018-03-18T05:42:53.319Z,-3.10
2018-03-18T05:43:53.228Z,-3.02
2018-03-18T05:44:53.142Z,-3.12
2018-03-18T05:45:53.048Z,-3.13
2018-03-18T05:46:52.959Z,-3.10
2018-03-18T05:47:52.870Z,-3.06
2018-03-18T05:48:52.778Z,-3.04
2018-03-18T05:49:52.688Z,-3.06
2018-03-18T05:50:52.599Z,-3.12
2018-03-18T05:51:52.508Z,-3.10
2018-03-18T05:52:52.419Z,-3.01
2018-03-18T05:53:52.329Z,-3.04
2018-03-18T05:54:52.239Z,-2.92
2018-03-18T05:55:52.149Z,-2.92
2018-03-18T05:56:52.057Z,-2.94
2018-03-18T05:57:51.967Z,-2.88
2018-03-18T05:58:51.882Z,-2.95
2018-03-18T05:59:51.789Z,-2.92
2018-03-18T06:00:51.698Z,-2.99
2018-03-18T06:01:51.619Z,-3.06
2018-03-18T06:02:51.520Z,-3.04
2018-03-18T06:03:51.429Z,-3.09
2018-03-18T06:04:51.339Z,-3.06
2018-03-18T06:05:51.252Z,-3.04
2018-03-18T06:06:51.163Z,-3.04
2018-03-18T06:07:51.069Z,-2.92
2018-03-18T06:08:50.981Z,-2.86
2018-03-18T06:09:50.891Z,-2.92
2018-03-18T06:10:50.801Z,-2.95
2018-03-18T06:11:50.717Z,-2.98
2018-03-18T06:12:50.621Z,-3.01
2018-03-18T06:13:50.533Z,-2.86
2018-03-18T06:14:50.440Z,-2.91
2018-03-18T06:15:50.350Z,-2.86
2018-03-18T06:16:50.260Z,-2.89
2018-03-18T06:17:50.177Z,-2.94
2018-03-18T06:18:50.082Z,-2.94
2018-03-18T06:19:49.990Z,-2.86
2018-03-18T06:20:49.902Z,-2.92
2018-03-18T06:21:49.815Z,-3.01
2018-03-18T06:22:49.723Z,-2.98
2018-03-18T06:23:49.629Z,-2.99
2018-03-18T06:24:49.612Z,-3.02
2018-03-18T06:25:49.459Z,-3.02
2018-03-18T06:26:49.363Z,-3.01
2018-03-18T06:27:49.270Z,-3.07
2018-03-18T06:28:49.180Z,-3.06
2018-03-18T06:29:49.091Z,-3.07
2018-03-18T06:30:49.006Z,-3.04
2018-03-18T06:31:48.910Z,-3.10
2018-03-18T06:32:48.827Z,-3.02
2018-03-18T06:33:48.734Z,-3.07
2018-03-18T06:34:48.644Z,-3.10
2018-03-18T06:35:48.563Z,-2.98
2018-03-18T06:36:48.463Z,-3.10
2018-03-18T06:37:48.378Z,-2.97
2018-03-18T06:38:48.285Z,-2.95
2018-03-18T06:39:48.192Z,-2.88
2018-03-18T06:40:48.113Z,-2.92
2018-03-18T06:41:48.013Z,-2.92
2018-03-18T06:42:47.924Z,-2.92
2018-03-18T06:43:47.834Z,-2.88
2018-03-18T06:44:47.759Z,-2.78
2018-03-18T06:45:47.655Z,-2.97
2018-03-18T06:46:47.567Z,-2.81
2018-03-18T06:47:47.477Z,-2.88
2018-03-18T06:48:47.389Z,-2.97
2018-03-18T06:49:47.296Z,-2.99
2018-03-18T06:50:47.215Z,-2.91
2018-03-18T06:51:47.119Z,-3.04
2018-03-18T06:52:47.028Z,-3.06
2018-03-18T06:53:46.938Z,-3.07
2018-03-18T06:54:46.903Z,-2.98
2018-03-18T06:55:46.756Z,-3.04
2018-03-18T06:56:46.676Z,-3.04
2018-03-18T06:57:46.580Z,-3.10
2018-03-18T06:58:46.489Z,-3.04
2018-03-18T06:59:46.398Z,-2.98
2018-03-18T07:00:46.315Z,-2.98
2018-03-18T07:01:46.222Z,-2.89
2018-03-18T07:02:46.130Z,-2.88
2018-03-18T07:03:46.040Z,-2.95
2018-03-18T07:04:45.950Z,-2.94
2018-03-18T07:05:45.862Z,-2.92
2018-03-18T07:06:45.770Z,-2.86
2018-03-18T07:07:45.680Z,-2.89
2018-03-18T07:08:45.592Z,-2.92
2018-03-18T07:09:45.508Z,-2.99
2018-03-18T07:10:45.418Z,-3.01
2018-03-18T07:11:45.322Z,-3.04
2018-03-18T07:12:45.233Z,-3.02
2018-03-18T07:13:45.142Z,-2.91
2018-03-18T07:14:45.059Z,-2.97
2018-03-18T07:15:44.963Z,-2.92
2018-03-18T07:16:44.880Z,-2.92
2018-03-18T07:17:44.799Z,-2.84
2018-03-18T07:18:44.693Z,-2.97
2018-03-18T07:19:44.621Z,-3.01
2018-03-18T07:20:44.514Z,-2.91
2018-03-18T07:21:44.426Z,-2.88
2018-03-18T07:22:44.334Z,-2.86
2018-03-18T07:23:44.245Z,-2.78
2018-03-18T07:24:44.156Z,-2.92
2018-03-18T07:25:44.071Z,-2.86
2018-03-18T07:26:43.976Z,-2.80
2018-03-18T07:27:43.885Z,-2.84
2018-03-18T07:28:43.797Z,-2.81
2018-03-18T07:29:43.724Z,-2.83
2018-03-18T07:30:43.619Z,-2.76
2018-03-18T07:31:43.528Z,-2.78
2018-03-18T07:32:43.456Z,-2.77
2018-03-18T07:33:43.349Z,-2.69
2018-03-18T07:34:43.268Z,-2.66
2018-03-18T07:35:43.168Z,-2.62
2018-03-18T07:36:43.078Z,-2.56
2018-03-18T07:37:42.991Z,-2.59
2018-03-18T07:38:42.950Z,-2.60
2018-03-18T07:39:42.810Z,-2.69
2018-03-18T07:40:42.722Z,-2.66
2018-03-18T07:41:42.632Z,-2.65
2018-03-18T07:42:42.543Z,-2.62
2018-03-18T07:43:42.505Z,-2.65
2018-03-18T07:44:42.367Z,-2.55
2018-03-18T07:45:42.278Z,-2.62
2018-03-18T07:46:42.193Z,-2.50
2018-03-18T07:47:42.098Z,-2.53
2018-03-18T07:48:42.014Z,-2.48
2018-03-18T07:49:41.936Z,-2.50
2018-03-18T07:50:41.828Z,-2.45
2018-03-18T07:51:41.743Z,-2.55
2018-03-18T07:52:41.649Z,-2.44
2018-03-18T07:53:41.560Z,-2.44
2018-03-18T07:54:41.471Z,-2.56
2018-03-18T07:55:41.388Z,-2.37
2018-03-18T07:56:41.292Z,-2.48
2018-03-18T07:57:41.211Z,-2.44
2018-03-18T07:58:41.113Z,-2.42
2018-03-18T07:59:41.025Z,-2.35
2018-03-18T08:00:40.937Z,-2.44
2018-03-18T08:01:40.848Z,-2.30
2018-03-18T08:02:40.758Z,-2.41
2018-03-18T08:03:40.670Z,-2.35
2018-03-18T08:04:40.586Z,-2.21
2018-03-18T08:05:40.489Z,-2.22
2018-03-18T08:06:40.416Z,-2.13
2018-03-18T08:07:40.316Z,-2.19
2018-03-18T08:08:40.234Z,-2.08
2018-03-18T08:09:40.135Z,-2.02
2018-03-18T08:10:40.051Z,-2.02
2018-03-18T08:11:39.959Z,-2.10
2018-03-18T08:12:39.866Z,-2.05
2018-03-18T08:13:39.777Z,-1.97
2018-03-18T08:14:39.706Z,-2.07
2018-03-18T08:15:39.602Z,-1.94
2018-03-18T08:16:39.509Z,-1.97
2018-03-18T08:17:39.424Z,-1.90
2018-03-18T08:18:39.336Z,-1.92
2018-03-18T08:19:39.247Z,-1.87
2018-03-18T08:20:39.156Z,-1.86
2018-03-18T08:21:39.071Z,-1.89
2018-03-18T08:22:38.990Z,-1.98
2018-03-18T08:23:38.889Z,-1.95
2018-03-18T08:24:38.802Z,-1.95
2018-03-18T08:25:38.716Z,-1.92
2018-03-18T08:26:38.624Z,-1.97
2018-03-18T08:27:38.534Z,-2.00
2018-03-18T08:28:38.448Z,-1.92
2018-03-18T08:29:38.359Z,-2.00
2018-03-18T08:30:38.272Z,-2.01
2018-03-18T08:31:38.181Z,-1.98
2018-03-18T08:32:38.094Z,-2.05
2018-03-18T08:33:38.006Z,-1.98
2018-03-18T08:34:37.914Z,-2.01
2018-03-18T08:35:37.828Z,-2.04
2018-03-18T08:36:37.738Z,-2.07
2018-03-18T08:37:37.652Z,-2.15
2018-03-18T08:38:37.561Z,-2.12
2018-03-18T08:39:37.471Z,-2.02
2018-03-18T08:40:37.381Z,-2.00
2018-03-18T08:41:37.296Z,-1.92
2018-03-18T08:42:37.824Z,-1.94
2018-03-18T08:43:37.119Z,-1.86
2018-03-18T08:44:37.030Z,-1.98
2018-03-18T08:45:36.941Z,-1.98
2018-03-18T08:46:36.854Z,-2.02
2018-03-18T08:47:36.766Z,-2.01
2018-03-18T08:48:36.673Z,-1.98
2018-03-18T08:49:36.587Z,-1.89
2018-03-18T08:50:36.498Z,-2.05
2018-03-18T08:51:36.412Z,-2.01
2018-03-18T08:52:36.321Z,-2.05
2018-03-18T08:53:36.234Z,-2.04
2018-03-18T08:54:36.147Z,-2.04
2018-03-18T08:55:36.054Z,-2.01
2018-03-18T08:56:35.966Z,-2.02
2018-03-18T08:57:35.905Z,-2.05
2018-03-18T08:58:35.790Z,-1.95
2018-03-18T08:59:35.699Z,-1.89
2018-03-18T09:00:35.611Z,-1.90
2018-03-18T09:01:35.523Z,-1.92
2018-03-18T09:02:35.435Z,-1.87
2018-03-18T09:03:35.348Z,-1.92
2018-03-18T09:04:35.258Z,-1.97
2018-03-18T09:05:35.169Z,-1.97
2018-03-18T09:06:35.114Z,-2.01
2018-03-18T09:07:34.993Z,-2.00
2018-03-18T09:08:34.903Z,-2.00
2018-03-18T09:09:34.818Z,-2.01
2018-03-18T09:10:34.731Z,-2.01
2018-03-18T09:11:34.693Z,-2.01
2018-03-18T09:12:34.551Z,-2.02
2018-03-18T09:13:34.463Z,-1.98
2018-03-18T09:14:34.372Z,-1.92
2018-03-18T09:15:34.283Z,-1.95
2018-03-18T09:16:34.198Z,-1.94
2018-03-18T09:17:34.108Z,-2.02
2018-03-18T09:18:34.018Z,-2.00
2018-03-18T09:19:33.932Z,-1.86
2018-03-18T09:20:33.842Z,-2.01
2018-03-18T09:21:33.758Z,-1.87
2018-03-18T09:22:33.667Z,-1.97
2018-03-18T09:23:33.632Z,-1.92
2018-03-18T09:24:33.488Z,-1.98
2018-03-18T09:25:33.401Z,-1.92
2018-03-18T09:26:33.311Z,-1.87
2018-03-18T09:27:33.221Z,-1.80
2018-03-18T09:28:33.192Z,-1.82
2018-03-18T09:29:33.048Z,-1.92
2018-03-18T09:30:32.956Z,-1.79
2018-03-18T09:31:32.883Z,-1.80
2018-03-18T09:32:32.799Z,-1.80
2018-03-18T09:33:32.691Z,-1.79
2018-03-18T09:34:32.607Z,-1.82
2018-03-18T09:35:32.566Z,-1.69
2018-03-18T09:36:32.427Z,-1.69
2018-03-18T09:37:32.343Z,-1.72
2018-03-18T09:38:32.258Z,-1.79
2018-03-18T09:39:32.162Z,-1.69
2018-03-18T09:40:32.075Z,-1.68
2018-03-18T09:41:31.984Z,-1.72
2018-03-18T09:42:31.900Z,-1.69
2018-03-18T09:43:31.850Z,-1.79
2018-03-18T09:44:31.721Z,-1.61
2018-03-18T09:45:31.631Z,-1.64
2018-03-18T09:46:31.554Z,-1.58
2018-03-18T09:47:31.453Z,-1.54
2018-03-18T09:48:31.364Z,-1.58
2018-03-18T09:49:31.281Z,-1.54
2018-03-18T09:50:31.199Z,-1.51
2018-03-18T09:51:31.113Z,-1.46
2018-03-18T09:52:31.023Z,-1.51
2018-03-18T09:53:30.926Z,-1.44
2018-03-18T09:54:30.838Z,-1.56
2018-03-18T09:55:30.754Z,-1.51
2018-03-18T09:56:30.659Z,-1.48
2018-03-18T09:57:30.571Z,-1.43
2018-03-18T09:58:30.483Z,-1.54
2018-03-18T09:59:30.456Z,-1.51
2018-03-18T10:00:30.320Z,-1.59
2018-03-18T10:01:30.221Z,-1.58
2018-03-18T10:02:30.133Z,-1.59
2018-03-18T10:03:30.047Z,-1.61
2018-03-18T10:04:29.992Z,-1.65
2018-03-18T10:05:29.870Z,-1.64
2018-03-18T10:06:29.781Z,-1.65
2018-03-18T10:07:29.690Z,-1.62
2018-03-18T10:08:29.616Z,-1.61
2018-03-18T10:09:29.514Z,-1.54
2018-03-18T10:10:29.459Z,-1.54
2018-03-18T10:11:29.337Z,-1.54
2018-03-18T10:12:29.280Z,-1.61
2018-03-18T10:13:29.161Z,-1.58
2018-03-18T10:14:29.082Z,-1.48
2018-03-18T10:15:28.990Z,-1.59
2018-03-18T10:16:28.919Z,-1.62
2018-03-18T10:17:28.809Z,-1.62
2018-03-18T10:18:28.723Z,-1.51
2018-03-18T10:19:28.642Z,-1.44
2018-03-18T10:20:28.547Z,-1.48
2018-03-18T10:21:28.456Z,-1.51
2018-03-18T10:22:28.390Z,-1.41
2018-03-18T10:23:28.279Z,-1.33
2018-03-18T10:24:28.190Z,-1.35
2018-03-18T10:25:28.104Z,-1.33
2018-03-18T10:26:28.021Z,-1.30
2018-03-18T10:27:27.927Z,-1.37
2018-03-18T10:28:27.841Z,-1.30
2018-03-18T10:29:27.753Z,-1.29
2018-03-18T10:30:27.669Z,-1.32
2018-03-18T10:31:27.574Z,-1.23
2018-03-18T10:32:27.495Z,-1.27
2018-03-18T10:33:27.404Z,-1.19
2018-03-18T10:34:27.312Z,-1.17
2018-03-18T10:35:27.223Z,-1.12
2018-03-18T10:36:27.143Z,-1.04
2018-03-18T10:37:27.078Z,-1.23
2018-03-18T10:38:26.965Z,-1.33
2018-03-18T10:39:26.872Z,-1.32
2018-03-18T10:40:26.784Z,-1.30
2018-03-18T10:41:26.696Z,-1.30
2018-03-18T10:42:26.646Z,-1.19
2018-03-18T10:43:26.522Z,-1.15
2018-03-18T10:44:26.440Z,-1.09
2018-03-18T10:45:26.370Z,-1.08
2018-03-18T10:46:26.312Z,-0.99
2018-03-18T10:47:26.175Z,-0.96
2018-03-18T10:48:26.086Z,-0.91
2018-03-18T10:49:25.994Z,-0.85
2018-03-18T10:50:25.913Z,-0.83
2018-03-18T10:51:25.821Z,-0.82
2018-03-18T10:52:25.742Z,-0.82
2018-03-18T10:53:25.646Z,-0.82
2018-03-18T10:54:25.561Z,-0.89
2018-03-18T10:55:25.478Z,-0.90
2018-03-18T10:56:25.383Z,-0.94
2018-03-18T10:57:25.300Z,-0.82
2018-03-18T10:58:25.206Z,-0.90
2018-03-18T10:59:25.178Z,-0.89
2018-03-18T11:00:25.035Z,-0.94
2018-03-18T11:01:24.946Z,-0.86
2018-03-18T11:02:24.858Z,-0.90
2018-03-18T11:03:24.769Z,-0.90
2018-03-18T11:04:24.685Z,-0.77
2018-03-18T11:05:24.597Z,-0.91
2018-03-18T11:06:24.517Z,-1.01
2018-03-18T11:07:24.421Z,-1.02
2018-03-18T11:08:24.334Z,-1.08
2018-03-18T11:09:24.244Z,-1.07
2018-03-18T11:10:24.172Z,-1.08
2018-03-18T11:11:24.074Z,-1.01
2018-03-18T11:12:23.981Z,-0.97
2018-03-18T11:13:23.896Z,-1.11
2018-03-18T11:14:23.810Z,-0.96
2018-03-18T11:15:23.721Z,-1.07
2018-03-18T11:16:23.633Z,-0.97
2018-03-18T11:17:23.547Z,-0.97
2018-03-18T11:18:23.458Z,-1.01
2018-03-18T11:19:23.372Z,-0.82
2018-03-18T11:20:23.284Z,-0.85
2018-03-18T11:21:23.196Z,-0.82
2018-03-18T11:22:23.109Z,-0.85
2018-03-18T11:23:23.017Z,-0.97
2018-03-18T11:24:22.932Z,-1.05
2018-03-18T11:25:22.870Z,-1.05
2018-03-18T11:26:22.757Z,-1.11
2018-03-18T11:27:22.672Z,-1.15
2018-03-18T11:28:22.581Z,-1.07
2018-03-18T11:29:22.493Z,-1.08
2018-03-18T11:30:22.408Z,-1.04
2018-03-18T11:31:22.318Z,-0.94
2018-03-18T11:32:22.243Z,-0.97
2018-03-18T11:33:22.142Z,-0.91
2018-03-18T11:34:22.058Z,-0.97
2018-03-18T11:35:21.992Z,-0.94
2018-03-18T11:36:21.884Z,-0.75
2018-03-18T11:37:21.796Z,-0.75
2018-03-18T11:38:21.711Z,-0.71
2018-03-18T11:39:21.666Z,-0.64
2018-03-18T11:40:21.536Z,-0.54
2018-03-18T11:41:21.444Z,-0.54
2018-03-18T11:42:21.356Z,-0.50
2018-03-18T11:43:21.268Z,-0.53
2018-03-18T11:44:21.183Z,-0.49
2018-03-18T11:45:21.097Z,-0.36
2018-03-18T11:46:21.024Z,-0.28
2018-03-18T11:47:20.923Z,-0.28
2018-03-18T11:48:20.834Z,-0.20
2018-03-18T11:49:20.762Z,-0.21
2018-03-18T11:50:20.663Z,-0.10
2018-03-18T11:51:20.573Z,-0.21
2018-03-18T11:52:20.487Z,-0.15
2018-03-18T11:53:20.402Z,-0.14
2018-03-18T11:54:20.423Z,-0.17
2018-03-18T11:55:20.249Z,-0.31
2018-03-18T11:56:20.139Z,-0.39
2018-03-18T11:57:20.059Z,-0.44
2018-03-18T11:58:19.978Z,-0.54
2018-03-18T11:59:19.881Z,-0.46
2018-03-18T12:00:19.798Z,-0.47
2018-03-18T12:01:19.706Z,-0.36
2018-03-18T12:02:19.618Z,-0.39
2018-03-18T12:03:19.530Z,-0.32
2018-03-18T12:04:19.445Z,-0.29
2018-03-18T12:05:19.372Z,-0.29
2018-03-18T12:06:19.276Z,-0.23
2018-03-18T12:07:19.185Z,-0.21
2018-03-18T12:08:19.098Z,-0.21
2018-03-18T12:09:19.012Z,-0.25
2018-03-18T12:10:18.969Z,-0.32
2018-03-18T12:11:18.841Z,-0.31
2018-03-18T12:12:18.755Z,-0.31
2018-03-18T12:13:18.668Z,-0.36
2018-03-18T12:14:18.583Z,-0.38
2018-03-18T12:15:18.496Z,-0.53
2018-03-18T12:16:18.408Z,-0.39
2018-03-18T12:17:18.325Z,-0.41
2018-03-18T12:18:18.232Z,-0.32
2018-03-18T12:19:18.146Z,-0.25
2018-03-18T12:20:18.062Z,-0.41
2018-03-18T12:21:17.975Z,-0.46
2018-03-18T12:22:17.889Z,-0.49
2018-03-18T12:23:17.805Z,-0.57
2018-03-18T12:24:17.716Z,-0.62
2018-03-18T12:25:17.628Z,-0.54
2018-03-18T12:26:17.539Z,-0.56
2018-03-18T12:27:17.454Z,-0.64
2018-03-18T12:28:17.372Z,-0.68
2018-03-18T12:29:17.280Z,-0.64
2018-03-18T12:30:17.195Z,-0.68
2018-03-18T12:31:17.109Z,-0.72
2018-03-18T12:32:17.020Z,-0.80
2018-03-18T12:33:16.934Z,-0.82
2018-03-18T12:34:16.847Z,-0.78
2018-03-18T12:35:16.761Z,-0.75
2018-03-18T12:36:16.676Z,-0.80
2018-03-18T12:37:16.588Z,-0.74
2018-03-18T12:38:16.501Z,-0.72
2018-03-18T12:39:16.413Z,-0.71
2018-03-18T12:40:16.329Z,-0.70
2018-03-18T12:41:16.237Z,-0.77
2018-03-18T12:42:16.151Z,-0.86
2018-03-18T12:43:16.065Z,-0.80
2018-03-18T12:44:15.977Z,-0.89
2018-03-18T12:45:15.898Z,-0.80
2018-03-18T12:46:15.805Z,-0.80
2018-03-18T12:47:15.723Z,-0.77
2018-03-18T12:48:15.673Z,-0.80
2018-03-18T12:49:15.546Z,-0.83
2018-03-18T12:50:15.461Z,-0.78
2018-03-18T12:51:15.371Z,-0.74